Latest Weather Observations for Jimna

IDQ60801

Issued at 1:02 pm EST Saturday 18 April 2015 (issued every 30 minutes, with the page automatically refreshed every 10 minutes)

About weather observations | Map of weather stations | Latest weather observations for QLD | Other Formats
Station Details ID: 040651 Name: JIMNA FORESTRY Lat: -26.66 Lon: 152.46 Height: 523.0 m
Data from the previous 72 hours. | See also: Recent months at Jimna
Date/Time
EST
Temp
°C
App
Temp
°C
Dew
Point
Rel
Hum
%
Delta-T
°C
Wind Press
QNH
hPa
Press
MSL
hPa
Rain
since 9 am
mm
Dir
 
Spd
km/h
Gust
km/h
Spd
kts
Gust
kts
18/01:00pm 20.5 - 18.1 86 1.5 - - - - - - - 1.2
18/12:30pm 19.2 - 17.2 88 1.2 - - - - - - - 1.0
18/12:00pm 20.6 - 15.8 74 2.9 - - - - - - - 0.0
18/11:30am 23.8 - 16.1 62 4.8 - - - - - - - 0.0
18/11:00am 22.7 - 15.8 65 4.2 - - - - - - - 0.0
18/10:30am 21.3 - 16.5 74 3.0 - - - - - - - 0.0
18/10:00am 21.6 - 17.2 76 2.8 - - - - - - - 0.0
18/09:30am 20.3 - 16.3 78 2.5 - - - - - - - 0.0
18/09:00am 19.9 - 16.9 83 1.9 - - - - - - - 2.0
18/08:30am 19.4 - 16.4 83 1.8 - - - - - - - 2.0
18/08:00am 19.9 - 17.7 87 1.4 - - - - - - - 2.0
18/07:30am 18.4 - - - - - - - - - - - 2.0
18/07:00am 16.6 - 16.9 - - - - - - - - - 2.0
18/06:30am 16.2 - 16.2 100 0.0 - - - - - - - 2.0
18/06:00am 16.4 - 15.3 93 0.7 - - - - - - - 2.0
18/05:30am 16.9 - 16.7 99 0.1 - - - - - - - 2.0
18/05:00am 17.0 - 15.9 93 0.7 - - - - - - - 0.6
18/04:30am 17.3 - 15.8 91 0.9 - - - - - - - 0.2
18/04:00am 17.3 - 15.6 90 1.0 - - - - - - - 0.2
18/03:30am 17.7 - 15.9 89 1.1 - - - - - - - 0.0
18/03:00am 17.4 - 15.9 91 0.9 - - - - - - - 0.0
18/02:30am 17.1 - 15.3 89 1.1 - - - - - - - 0.0
18/02:00am 17.2 - 15.7 91 0.9 - - - - - - - 0.0
18/01:30am 16.9 - 16.7 99 0.1 - - - - - - - 0.0
18/01:00am 16.4 - 14.8 90 0.9 - - - - - - - 0.0
18/12:30am 16.8 - 15.0 89 1.1 - - - - - - - 0.0
18/12:00am 17.2 - 16.2 94 0.6 - - - - - - - 0.0
 
Date/Time
EST
Temp
°C
App
Temp
°C
Dew
Point
Rel
Hum
%
Delta-T
°C
Wind Press
QNH
hPa
Press
MSL
hPa
Rain
since 9 am
mm
Dir
 
Spd
km/h
Gust
km/h
Spd
kts
Gust
kts
17/11:30pm 16.1 - 14.6 91 0.9 - - - - - - - 0.0
17/11:00pm 15.5 - 13.5 88 1.1 - - - - - - - 0.0
17/10:30pm 16.2 - 14.0 87 1.3 - - - - - - - 0.0
17/10:00pm 17.0 - 14.8 87 1.3 - - - - - - - 0.0
17/09:30pm 16.7 - 14.5 87 1.3 - - - - - - - 0.0
17/09:00pm 16.8 - 14.1 84 1.6 - - - - - - - 0.0
17/08:30pm 17.2 - 14.5 84 1.6 - - - - - - - 0.0
17/08:00pm 16.3 - 14.0 86 1.3 - - - - - - - 0.0
17/07:30pm 17.1 - 14.6 85 1.5 - - - - - - - 0.0
17/07:00pm 17.6 - 14.7 83 1.7 - - - - - - - 0.0
17/06:30pm 18.0 - 14.9 82 1.8 - - - - - - - 0.0
17/06:00pm 18.5 - 14.8 79 2.2 - - - - - - - 0.0
17/05:30pm 19.3 - 14.8 75 2.7 - - - - - - - 0.0
17/05:00pm 20.1 - 14.9 72 3.1 - - - - - - - 0.0
17/04:30pm 21.0 - 14.4 66 3.9 - - - - - - - 0.0
17/04:00pm 22.0 - 14.6 63 4.5 - - - - - - - 0.0
17/03:30pm 23.0 - 14.3 58 5.2 - - - - - - - 0.0
17/03:00pm 23.7 - 14.7 57 5.5 - - - - - - - 0.0
17/02:30pm 23.6 - 14.9 58 5.3 - - - - - - - 0.0
17/02:00pm 23.7 - 14.4 56 5.6 - - - - - - - 0.0
17/01:30pm 24.0 - 16.5 63 4.7 - - - - - - - 0.0
17/01:00pm 23.0 - 15.1 61 4.8 - - - - - - - 0.0
17/12:30pm 24.1 - 16.6 63 4.7 - - - - - - - 0.0
17/12:00pm 22.0 - 15.1 65 4.2 - - - - - - - 0.0
17/11:30am 22.2 - 15.3 65 4.2 - - - - - - - 0.0
17/11:00am 21.4 - 15.0 67 3.9 - - - - - - - 0.0
17/10:30am 22.0 - 15.8 68 3.8 - - - - - - - 0.0
17/10:00am 22.5 - 14.9 62 4.6 - - - - - - - 0.0
17/09:30am 22.1 - 15.2 65 4.2 - - - - - - - 0.0
17/09:00am 21.7 - 16.0 70 3.5 - - - - - - - 0.0
17/08:30am 20.8 - 17.0 79 2.4 - - - - - - - 0.0
17/08:00am 19.2 - 17.2 88 1.2 - - - - - - - 0.0
17/07:30am 15.6 - - - - - - - - - - - 0.0
17/07:00am 13.4 - - - - - - - - - - - 0.0
17/06:30am 11.3 - - - - - - - - - - - 0.0
17/06:00am 11.3 - - - - - - - - - - - 0.0
17/05:30am 11.5 - - - - - - - - - - - 0.0
17/05:00am 11.3 - 10.8 97 0.3 - - - - - - - 0.0
17/04:30am 11.6 - 10.3 92 0.7 - - - - - - - 0.0
17/04:00am 11.9 - 10.6 92 0.7 - - - - - - - 0.0
17/03:30am 12.2 - 10.9 92 0.7 - - - - - - - 0.0
17/03:00am 12.7 - 11.4 92 0.7 - - - - - - - 0.0
17/02:30am 12.9 - 11.5 91 0.8 - - - - - - - 0.0
17/02:00am 13.4 - 12.0 91 0.8 - - - - - - - 0.0
17/01:30am 13.7 - 12.1 90 0.9 - - - - - - - 0.0
17/01:00am 14.4 - 12.8 90 0.9 - - - - - - - 0.0
17/12:30am 15.0 - 13.4 90 0.9 - - - - - - - 0.0
17/12:00am 15.5 - 13.9 90 0.9 - - - - - - - 0.0
 
Date/Time
EST
Temp
°C
App
Temp
°C
Dew
Point
Rel
Hum
%
Delta-T
°C
Wind Press
QNH
hPa
Press
MSL
hPa
Rain
since 9 am
mm
Dir
 
Spd
km/h
Gust
km/h
Spd
kts
Gust
kts
16/11:30pm 15.7 - - - - - - - - - - - 0.0
16/11:00pm 14.5 - 13.0 91 0.8 - - - - - - - 0.0
16/10:30pm 14.7 - 13.1 90 0.9 - - - - - - - 0.0
16/10:00pm 14.8 - 12.8 88 1.1 - - - - - - - 0.0
16/09:30pm 15.9 - 13.9 88 1.2 - - - - - - - 0.0
16/09:00pm 15.0 - 13.2 89 1.0 - - - - - - - 0.0
16/08:30pm 15.0 - 12.9 87 1.2 - - - - - - - 0.0
16/08:00pm 15.9 - 13.6 86 1.3 - - - - - - - 0.0
16/07:30pm 16.7 - 14.0 84 1.6 - - - - - - - 0.0
16/07:00pm 17.7 - 14.0 79 2.2 - - - - - - - 0.0
16/06:30pm 18.3 - 14.2 77 2.4 - - - - - - - 0.0
16/06:00pm 18.9 - 14.0 73 2.9 - - - - - - - 0.0
16/05:30pm 19.9 - 13.6 67 3.7 - - - - - - - 0.0
16/05:00pm 20.6 - 13.3 63 4.3 - - - - - - - 0.0
16/04:30pm 21.9 - 13.3 58 5.1 - - - - - - - 0.0
16/04:00pm 22.7 - 13.2 55 5.6 - - - - - - - 0.0
16/03:30pm 23.4 - 12.7 51 6.3 - - - - - - - 0.0
16/03:00pm 23.8 - 12.4 48 6.7 - - - - - - - 0.0
16/02:30pm 24.0 - 11.3 45 7.3 - - - - - - - 0.0
16/02:00pm 24.2 - 12.8 49 6.7 - - - - - - - 0.0
16/01:30pm 24.3 - 13.5 51 6.4 - - - - - - - 0.0
16/01:00pm 23.8 - 13.1 51 6.3 - - - - - - - 0.0
16/12:30pm 23.5 - 12.8 51 6.3 - - - - - - - 0.0
16/12:00pm 23.6 - 15.1 59 5.2 - - - - - - - 0.0
16/11:30am 22.9 - 13.4 55 5.6 - - - - - - - 0.0
16/11:00am 21.6 - 13.8 61 4.6 - - - - - - - 0.0
16/10:30am 22.3 - 15.2 64 4.3 - - - - - - - 0.0
16/10:00am 21.2 - 14.6 66 4.0 - - - - - - - 0.0
16/09:30am 20.8 - 15.1 70 3.4 - - - - - - - 0.0
16/09:00am 20.1 - 16.3 79 2.3 - - - - - - - 0.0
16/08:30am 18.5 - 15.9 85 1.6 - - - - - - - 0.0
16/08:00am 17.2 - 16.6 96 0.4 - - - - - - - 0.0
16/07:30am 15.2 - - - - - - - - - - - 0.0
16/07:00am 12.4 - - - - - - - - - - - 0.0
16/06:30am 11.1 - - - - - - - - - - - 0.0
16/06:00am 11.5 - - - - - - - - - - - 0.0
16/05:30am 10.6 - - - - - - - - - - - 0.0
16/05:00am 10.8 - 10.9 - - - - - - - - - 0.0
16/04:30am 10.8 - 9.6 92 0.6 - - - - - - - 0.0
16/04:00am 11.9 - - - - - - - - - - - 0.0
16/03:30am 11.5 - 11.8 - - - - - - - - - 0.0
16/03:00am 11.4 - 10.8 96 0.3 - - - - - - - 0.0
16/02:30am 11.5 - 10.2 92 0.7 - - - - - - - 0.0
16/02:00am 11.8 - 11.0 95 0.4 - - - - - - - 0.0
16/01:30am 12.0 - 11.4 96 0.3 - - - - - - - 0.0
16/01:00am 12.4 - 11.3 93 0.6 - - - - - - - 0.0
16/12:30am 12.7 - 11.9 95 0.4 - - - - - - - 0.0
16/12:00am 12.6 - 11.2 91 0.8 - - - - - - - 0.0
 
Date/Time
EST
Temp
°C
App
Temp
°C
Dew
Point
Rel
Hum
%
Delta-T
°C
Wind Press
QNH
hPa
Press
MSL
hPa
Rain
since 9 am
mm
Dir
 
Spd
km/h
Gust
km/h
Spd
kts
Gust
kts
15/11:30pm 13.2 - 11.6 90 0.9 - - - - - - - 0.0
15/11:00pm 13.4 - 11.8 90 0.9 - - - - - - - 0.0
15/10:30pm 13.9 - 12.3 90 0.9 - - - - - - - 0.0
15/10:00pm 14.7 - 13.2 91 0.9 - - - - - - - 0.0
15/09:30pm 14.8 - 13.2 90 0.9 - - - - - - - 0.0
15/09:00pm 15.0 - 13.0 88 1.1 - - - - - - - 0.0
15/08:30pm 15.7 - 13.7 88 1.2 - - - - - - - 0.0
15/08:00pm 16.3 - 14.3 88 1.2 - - - - - - - 0.0
15/07:30pm 16.6 - 14.4 87 1.3 - - - - - - - 0.0
15/07:00pm 16.6 - 14.1 85 1.5 - - - - - - - 0.0
15/06:30pm 17.4 - 14.3 82 1.8 - - - - - - - 0.0
15/06:00pm 18.1 - 14.4 79 2.2 - - - - - - - 0.0
15/05:30pm 19.3 - 14.6 74 2.8 - - - - - - - 0.0
15/05:00pm 20.0 - 14.8 72 3.1 - - - - - - - 0.0
15/04:30pm 20.1 - 14.7 71 3.2 - - - - - - - 0.0
15/04:00pm 20.5 - 13.7 65 4.0 - - - - - - - 0.0
15/03:30pm 22.9 - 15.5 63 4.5 - - - - - - - 0.0
15/03:00pm 21.3 - 14.2 64 4.2 - - - - - - - 0.0
15/02:30pm 22.2 - 12.5 54 5.6 - - - - - - - 0.0
15/02:00pm 22.5 - 14.9 62 4.6 - - - - - - - 0.0
15/01:30pm 22.7 - 12.9 54 5.8 - - - - - - - 0.0

Other Formats:

Comma delimited format used in spreadsheet applications
http://www.bom.gov.au/fwo/IDQ60801/IDQ60801.94557.axf

JavaScript Object Notation format (JSON) in row-major order
http://www.bom.gov.au/fwo/IDQ60801/IDQ60801.94557.json